Time;durP1;ratioP1;P1;durP2;ratioP2;P2;SDS_P1;SDS_P2;PMS_P1;PMS_P2;Temp;Humidity;BMP_temperature;BMP_pressure;BME280_temperature;BME280_humidity;BME280_pressure;Samples;Min_cycle;Max_cycle;Signal;HPM_P1;HPM_P2
2022/09/03 00:02:33;;;;;;;4.40;1.50;;;16.00;99.90;;;;;;5006185;28;20046;-71
2022/09/03 00:05:24;;;;;;;3.90;1.40;;;16.00;99.90;;;;;;5002616;28;20060;-71
2022/09/03 00:08:14;;;;;;;5.88;1.60;;;15.90;99.90;;;;;;4993331;28;20053;-72
2022/09/03 00:10:50;;;;;;;3.83;1.65;;;15.90;99.90;;;;;;5007323;28;20080;-72
2022/09/03 00:13:38;;;;;;;4.50;1.45;;;15.90;99.90;;;;;;5022813;28;20045;-72
2022/09/03 00:16:09;;;;;;;4.05;1.38;;;15.80;99.90;;;;;;5019956;28;20048;-72
2022/09/03 00:18:41;;;;;;;4.70;1.60;;;15.80;99.90;;;;;;5004058;28;20045;-72
2022/09/03 00:21:13;;;;;;;4.22;1.50;;;15.80;99.90;;;;;;5023498;28;20247;-71
2022/09/03 00:23:43;;;;;;;4.47;1.40;;;15.70;99.90;;;;;;5001186;28;20044;-72
2022/09/03 00:26:11;;;;;;;5.78;1.73;;;15.60;99.90;;;;;;4990828;28;20045;-71
2022/09/03 00:29:02;;;;;;;4.88;1.48;;;15.60;99.90;;;;;;5025479;28;20049;-74
2022/09/03 00:31:50;;;;;;;4.63;1.63;;;15.50;99.90;;;;;;5014798;28;20041;-72
2022/09/03 00:34:25;;;;;;;6.53;1.60;;;15.40;99.90;;;;;;5023909;28;20044;-72
2022/09/03 00:36:52;;;;;;;6.97;1.67;;;15.30;99.90;;;;;;5040422;28;20499;-73
2022/09/03 00:39:20;;;;;;;4.45;1.50;;;15.30;99.90;;;;;;4993330;28;20041;-72
2022/09/03 00:42:10;;;;;;;5.18;1.52;;;15.30;99.90;;;;;;5025363;28;20045;-72
2022/09/03 00:45:08;;;;;;;3.33;1.48;;;15.20;99.90;;;;;;5057765;28;20064;-73
2022/09/03 00:47:39;;;;;;;3.13;1.27;;;15.20;99.90;;;;;;5028442;28;20103;-72
2022/09/03 00:50:21;;;;;;;6.10;1.48;;;15.10;99.90;;;;;;5047613;28;20404;-71
2022/09/03 00:52:53;;;;;;;4.05;1.38;;;15.10;99.90;;;;;;5037846;28;20527;-71
2022/09/03 00:55:29;;;;;;;5.23;1.50;;;15.00;99.90;;;;;;5061083;28;20076;-72
2022/09/03 00:58:25;;;;;;;5.95;1.27;;;15.00;99.90;;;;;;5013538;28;20080;-71
2022/09/03 01:00:51;;;;;;;5.30;1.48;;;15.00;99.90;;;;;;5046492;28;20055;-72
2022/09/03 01:03:35;;;;;;;3.47;1.40;;;15.00;99.90;;;;;;5009074;28;20695;-72
2022/09/03 01:06:02;;;;;;;2.63;1.30;;;15.00;99.90;;;;;;5001847;28;20040;-71
2022/09/03 01:08:44;;;;;;;4.07;1.40;;;15.00;99.90;;;;;;5045872;28;20048;-71
2022/09/03 01:11:29;;;;;;;10.15;1.67;;;15.00;99.90;;;;;;5044814;28;20124;-72
2022/09/03 01:14:13;;;;;;;4.30;1.40;;;15.00;99.90;;;;;;5027972;28;20399;-72
2022/09/03 01:16:56;;;;;;;5.68;1.55;;;14.90;99.90;;;;;;5045599;28;20116;-72
2022/09/03 01:19:43;;;;;;;4.72;1.58;;;14.90;99.90;;;;;;5044245;28;20102;-72
2022/09/03 01:22:40;;;;;;;4.50;1.35;;;14.90;99.90;;;;;;5028790;28;20061;-71
2022/09/03 01:25:30;;;;;;;4.00;1.50;;;14.90;99.90;;;;;;5078782;28;20084;-72
2022/09/03 01:28:33;;;;;;;3.60;1.40;;;14.80;99.90;;;;;;5044491;28;20103;-72
2022/09/03 01:31:52;;;;;;;4.85;1.40;;;14.80;99.90;;;;;;5045681;28;20128;-72
2022/09/03 01:34:29;;;;;;;7.90;1.50;;;14.80;99.90;;;;;;4981657;28;20132;-72
2022/09/03 01:37:16;;;;;;;5.25;1.50;;;15.00;99.90;;;;;;5052010;28;20045;-71
2022/09/03 01:39:49;;;;;;;5.47;1.38;;;14.70;99.90;;;;;;5047333;28;20041;-73
2022/09/03 01:42:23;;;;;;;4.70;1.65;;;14.60;99.90;;;;;;5046006;28;20040;-71
2022/09/03 01:44:57;;;;;;;3.80;1.40;;;14.60;99.90;;;;;;5042935;28;20550;-71
2022/09/03 01:47:36;;;;;;;4.55;1.52;;;14.60;99.90;;;;;;5054435;28;20101;-72
2022/09/03 01:50:11;;;;;;;6.95;1.60;;;14.50;99.90;;;;;;5055971;28;20487;-71
2022/09/03 01:53:08;;;;;;;4.93;1.60;;;14.50;99.90;;;;;;5066197;28;20493;-72
2022/09/03 01:56:01;;;;;;;4.60;1.38;;;14.50;99.90;;;;;;5029224;28;20076;-71
2022/09/03 01:58:48;;;;;;;3.85;1.40;;;14.50;99.90;;;;;;5047295;28;20043;-72
2022/09/03 02:01:27;;;;;;;4.85;1.63;;;14.40;99.90;;;;;;5041751;28;20047;-72
2022/09/03 02:03:58;;;;;;;4.15;1.65;;;14.40;99.90;;;;;;5046934;28;20036;-72
2022/09/03 02:06:30;;;;;;;4.97;1.50;;;14.40;99.90;;;;;;5065181;28;20490;-73
2022/09/03 02:08:56;;;;;;;5.38;1.58;;;14.40;99.90;;;;;;5047803;28;20498;-72
2022/09/03 02:11:23;;;;;;;4.55;1.60;;;14.40;99.90;;;;;;5033639;28;20498;-72
2022/09/03 02:13:53;;;;;;;3.92;1.65;;;14.40;99.90;;;;;;5067273;28;20044;-71
2022/09/03 02:16:24;;;;;;;6.10;1.60;;;14.30;99.90;;;;;;5064084;28;20125;-73
2022/09/03 02:19:03;;;;;;;3.63;1.40;;;14.30;99.90;;;;;;5029186;28;20490;-72
2022/09/03 02:21:35;;;;;;;4.40;1.70;;;14.30;99.90;;;;;;5063671;28;20068;-72
2022/09/03 02:24:03;;;;;;;4.38;1.70;;;14.20;99.90;;;;;;5061406;28;20044;-72
2022/09/03 02:26:29;;;;;;;4.85;1.50;;;14.20;99.90;;;;;;5034096;28;20052;-72
2022/09/03 02:29:00;;;;;;;5.93;1.70;;;14.00;99.90;;;;;;5067472;28;20423;-73
2022/09/03 02:31:27;;;;;;;3.22;1.40;;;14.10;99.90;;;;;;5050539;28;20407;-71
2022/09/03 02:33:54;;;;;;;5.93;1.80;;;14.10;99.90;;;;;;5050808;28;20093;-73
2022/09/03 02:36:26;;;;;;;5.85;1.70;;;14.10;99.90;;;;;;5069666;28;20032;-72
2022/09/03 02:38:52;;;;;;;5.07;1.65;;;14.00;99.90;;;;;;5067988;28;20045;-71
2022/09/03 02:41:18;;;;;;;6.78;1.80;;;14.00;99.90;;;;;;5050818;28;20093;-72
2022/09/03 02:44:05;;;;;;;4.93;1.63;;;14.00;99.90;;;;;;5051423;28;20044;-70
2022/09/03 02:46:40;;;;;;;6.40;1.70;;;13.90;99.90;;;;;;5046520;28;20042;-72
2022/09/03 02:49:07;;;;;;;5.20;1.60;;;14.00;99.90;;;;;;5051475;28;20391;-72
2022/09/03 02:51:41;;;;;;;4.10;1.55;;;13.90;99.90;;;;;;5067475;28;20040;-71
2022/09/03 02:54:08;;;;;;;4.80;1.60;;;13.90;99.90;;;;;;5068951;28;20113;-73
2022/09/03 02:56:34;;;;;;;3.80;1.60;;;13.90;99.90;;;;;;5051047;28;20090;-72
2022/09/03 02:59:00;;;;;;;6.15;1.73;;;13.80;99.90;;;;;;5069219;28;20491;-73
2022/09/03 03:01:26;;;;;;;5.00;1.60;;;13.90;99.90;;;;;;5069001;28;20045;-72
2022/09/03 03:03:52;;;;;;;6.10;1.67;;;13.90;99.90;;;;;;5050726;28;20539;-72
2022/09/03 03:06:19;;;;;;;6.25;1.65;;;13.20;99.90;;;;;;5050797;28;20052;-72
2022/09/03 03:08:46;;;;;;;7.18;1.83;;;13.90;99.90;;;;;;5051986;28;20116;-70
2022/09/03 03:11:17;;;;;;;5.40;1.60;;;13.90;99.90;;;;;;5065802;28;20056;-71
2022/09/03 03:13:46;;;;;;;6.15;1.90;;;13.80;99.90;;;;;;5050744;28;20119;-72
2022/09/03 03:16:14;;;;;;;4.05;1.50;;;13.90;99.90;;;;;;5033779;28;20072;-72
2022/09/03 03:18:40;;;;;;;3.72;1.50;;;13.90;99.90;;;;;;5035096;28;20063;-73
2022/09/03 03:21:11;;;;;;;4.50;1.60;;;13.90;99.90;;;;;;5048909;28;20036;-72
2022/09/03 03:23:38;;;;;;;6.18;1.60;;;13.90;99.90;;;;;;5050906;28;20089;-73
2022/09/03 03:26:06;;;;;;;5.72;1.70;;;14.00;99.90;;;;;;5048684;28;20040;-72
2022/09/03 03:28:33;;;;;;;5.07;1.60;;;14.20;99.90;;;;;;5084698;28;20048;-72
2022/09/03 03:31:15;;;;;;;5.40;1.60;;;14.00;99.90;;;;;;5047688;28;20072;-72
2022/09/03 03:33:41;;;;;;;5.03;1.70;;;14.00;99.90;;;;;;5064251;28;20131;-71
2022/09/03 03:36:12;;;;;;;4.55;1.55;;;14.00;99.90;;;;;;5030880;28;20510;-71
2022/09/03 03:38:38;;;;;;;8.95;1.83;;;14.00;99.90;;;;;;5049986;28;20040;-73
2022/09/03 03:41:15;;;;;;;3.95;1.60;;;14.10;99.90;;;;;;5046936;28;20037;-71
2022/09/03 03:43:42;;;;;;;6.80;1.70;;;14.20;99.90;;;;;;5065916;28;20051;-71
2022/09/03 03:46:09;;;;;;;7.25;1.95;;;14.20;99.90;;;;;;5033133;28;20072;-73
2022/09/03 03:48:36;;;;;;;7.32;2.10;;;14.20;99.90;;;;;;5032845;28;20053;-72
2022/09/03 03:51:05;;;;;;;6.50;1.75;;;14.20;99.90;;;;;;5032544;28;20041;-70
2022/09/03 03:53:32;;;;;;;5.20;1.75;;;14.20;99.90;;;;;;5046367;28;20094;-70
2022/09/03 03:56:00;;;;;;;4.00;1.40;;;14.30;99.90;;;;;;5048432;28;20056;-72
2022/09/03 03:58:28;;;;;;;5.38;1.80;;;14.30;99.90;;;;;;5084798;28;20234;-72
2022/09/03 04:00:54;;;;;;;5.65;1.75;;;14.30;99.90;;;;;;5034280;28;20051;-72
2022/09/03 04:03:20;;;;;;;4.25;1.52;;;14.30;99.90;;;;;;5065636;28;20033;-72
2022/09/03 04:05:59;;;;;;;7.03;1.80;;;14.40;99.90;;;;;;5032312;28;20036;-73
2022/09/03 04:08:28;;;;;;;6.70;1.67;;;14.40;99.90;;;;;;5065985;28;20047;-73
2022/09/03 04:10:59;;;;;;;5.40;1.60;;;14.40;99.90;;;;;;5050746;28;20121;-73
2022/09/03 04:13:31;;;;;;;4.70;1.73;;;14.40;99.90;;;;;;5048661;28;20048;-72
2022/09/03 04:16:08;;;;;;;4.95;1.50;;;14.40;99.90;;;;;;5067860;28;20043;-71
2022/09/03 04:18:35;;;;;;;5.38;1.85;;;14.40;99.90;;;;;;5084844;28;20414;-72
2022/09/03 04:21:03;;;;;;;6.82;1.70;;;14.40;99.90;;;;;;5033746;28;20033;-72
2022/09/03 04:23:31;;;;;;;4.20;1.58;;;14.40;99.90;;;;;;5032652;28;20490;-73
2022/09/03 04:25:56;;;;;;;5.00;1.70;;;14.40;99.90;;;;;;5033510;28;20040;-72
2022/09/03 04:28:22;;;;;;;5.95;1.65;;;14.40;99.90;;;;;;5032704;28;20423;-72
2022/09/03 04:30:48;;;;;;;4.55;1.70;;;13.20;99.90;;;;;;5050074;28;20068;-72
2022/09/03 04:33:14;;;;;;;5.53;1.83;;;14.40;99.90;;;;;;5051166;28;20048;-73
2022/09/03 04:35:40;;;;;;;4.15;1.60;;;14.40;99.90;;;;;;5064700;28;20045;-72
2022/09/03 04:38:06;;;;;;;6.18;1.90;;;14.40;99.90;;;;;;5032319;28;20048;-72
2022/09/03 04:40:32;;;;;;;8.63;1.70;;;14.40;99.90;;;;;;5050630;28;20037;-73
2022/09/03 04:42:58;;;;;;;7.18;2.10;;;14.40;99.90;;;;;;5050775;28;20051;-73
2022/09/03 04:45:24;;;;;;;7.20;1.80;;;14.40;99.90;;;;;;5030931;28;20158;-72
2022/09/03 04:48:03;;;;;;;4.63;1.80;;;14.40;99.90;;;;;;5035700;28;20052;-72
2022/09/03 04:50:31;;;;;;;6.72;1.92;;;14.40;99.90;;;;;;5052000;28;20116;-71
2022/09/03 04:53:04;;;;;;;5.82;1.77;;;14.40;99.90;;;;;;5070368;28;20297;-72
2022/09/03 04:55:34;;;;;;;4.78;1.80;;;14.40;99.90;;;;;;5067657;28;20516;-73
2022/09/03 04:58:00;;;;;;;5.93;1.80;;;14.30;99.90;;;;;;5063205;28;20521;-73
2022/09/03 05:00:26;;;;;;;4.55;1.80;;;14.30;99.90;;;;;;5070557;28;20343;-72
2022/09/03 05:02:52;;;;;;;5.38;1.60;;;14.30;99.90;;;;;;5069060;28;20388;-72
2022/09/03 05:05:18;;;;;;;4.53;1.70;;;14.30;99.90;;;;;;5051006;28;20055;-73
2022/09/03 05:07:44;;;;;;;5.82;1.85;;;14.30;99.90;;;;;;5053531;28;20041;-71
2022/09/03 05:10:14;;;;;;;5.75;1.90;;;14.30;99.90;;;;;;5068801;28;20044;-72
2022/09/03 05:12:41;;;;;;;5.97;1.90;;;14.20;99.90;;;;;;5048907;28;20047;-72
2022/09/03 05:15:07;;;;;;;7.63;1.80;;;14.20;99.90;;;;;;5049018;28;20052;-73
2022/09/03 05:17:33;;;;;;;6.40;2.00;;;14.20;99.90;;;;;;5065662;28;20036;-73
2022/09/03 05:19:59;;;;;;;5.65;1.80;;;13.20;99.90;;;;;;5084817;28;20047;-72
2022/09/03 05:22:24;;;;;;;6.47;2.05;;;14.20;99.90;;;;;;5067079;28;20036;-71
2022/09/03 05:24:50;;;;;;;5.03;1.60;;;14.20;99.90;;;;;;5019090;28;20229;-72
2022/09/03 05:27:16;;;;;;;4.72;1.70;;;14.20;99.90;;;;;;5047968;28;20028;-73
2022/09/03 05:29:43;;;;;;;5.35;1.65;;;14.20;99.90;;;;;;5032378;28;20174;-72
2022/09/03 05:32:09;;;;;;;8.05;2.00;;;14.20;99.90;;;;;;5034726;28;20040;-71
2022/09/03 05:34:35;;;;;;;5.57;1.80;;;14.20;99.90;;;;;;5050631;28;20028;-73
2022/09/03 05:37:00;;;;;;;4.57;1.90;;;14.20;99.90;;;;;;5067429;28;20046;-73
2022/09/03 05:39:26;;;;;;;6.07;1.80;;;14.20;99.90;;;;;;5045528;28;20040;-74
2022/09/03 05:41:52;;;;;;;5.25;1.80;;;14.20;99.90;;;;;;5050143;28;20037;-73
2022/09/03 05:44:21;;;;;;;4.55;1.77;;;14.20;99.90;;;;;;5016310;28;20487;-72
2022/09/03 05:46:48;;;;;;;5.50;2.00;;;14.20;99.90;;;;;;5068895;28;20391;-72
2022/09/03 05:49:13;;;;;;;5.32;1.70;;;15.00;99.90;;;;;;5031692;28;20056;-71
2022/09/03 05:51:43;;;;;;;7.63;1.90;;;14.30;99.90;;;;;;5069089;28;20044;-72
2022/09/03 05:54:12;;;;;;;5.57;1.70;;;14.40;99.90;;;;;;5066731;28;20045;-72
2022/09/03 05:56:39;;;;;;;5.95;1.83;;;14.40;99.90;;;;;;5069458;28;20036;-74
2022/09/03 05:59:08;;;;;;;6.32;2.00;;;14.50;99.90;;;;;;5032621;28;20048;-73
2022/09/03 06:01:39;;;;;;;7.95;2.28;;;14.50;99.90;;;;;;5053188;28;20399;-72
2022/09/03 06:04:12;;;;;;;6.38;1.80;;;14.60;99.90;;;;;;5073153;28;20450;-71
2022/09/03 06:06:40;;;;;;;5.55;1.90;;;14.70;99.90;;;;;;5056196;28;20036;-72
2022/09/03 06:09:09;;;;;;;6.50;1.98;;;14.80;99.90;;;;;;5037994;28;20037;-72
2022/09/03 06:11:36;;;;;;;5.68;1.80;;;14.80;99.90;;;;;;5040132;28;20059;-72
2022/09/03 06:14:05;;;;;;;6.40;2.00;;;14.80;99.90;;;;;;5072520;28;20040;-71
2022/09/03 06:16:32;;;;;;;5.38;1.83;;;14.90;99.90;;;;;;5039836;28;20059;-72
2022/09/03 06:19:08;;;;;;;4.22;1.60;;;15.00;99.90;;;;;;5072415;28;20502;-74
2022/09/03 06:21:35;;;;;;;5.97;2.00;;;15.10;99.90;;;;;;5054825;28;20416;-71
2022/09/03 06:24:01;;;;;;;6.30;1.90;;;15.10;99.90;;;;;;5088301;28;20052;-72
2022/09/03 06:26:27;;;;;;;5.40;1.80;;;16.50;99.90;;;;;;5056170;28;20415;-71
2022/09/03 06:28:53;;;;;;;5.72;2.13;;;15.20;99.90;;;;;;5055701;28;20559;-71
2022/09/03 06:31:20;;;;;;;6.50;1.90;;;15.20;99.90;;;;;;5054721;28;20045;-73
2022/09/03 06:33:46;;;;;;;6.72;2.00;;;15.20;99.90;;;;;;5039424;28;20052;-72
2022/09/03 06:36:15;;;;;;;5.60;1.75;;;15.30;99.90;;;;;;5070223;28;20080;-72
2022/09/03 06:38:42;;;;;;;6.18;1.80;;;15.30;99.90;;;;;;5086658;28;20380;-72
2022/09/03 06:41:12;;;;;;;6.35;2.22;;;14.70;99.90;;;;;;5054595;28;20113;-73
2022/09/03 06:43:40;;;;;;;6.55;1.90;;;15.50;99.90;;;;;;5057502;28;20426;-71
2022/09/03 06:46:10;;;;;;;5.70;2.00;;;15.60;99.90;;;;;;5034056;28;20045;-72
2022/09/03 06:48:36;;;;;;;4.40;1.60;;;15.70;99.90;;;;;;5072830;28;20112;-71
2022/09/03 06:51:15;;;;;;;6.07;1.70;;;15.80;99.90;;;;;;5074899;28;20402;-72
2022/09/03 06:53:45;;;;;;;4.70;1.95;;;15.90;99.90;;;;;;5055410;28;20051;-72
2022/09/03 06:56:13;;;;;;;5.03;1.75;;;16.00;99.90;;;;;;5074437;28;20048;-72
2022/09/03 06:58:45;;;;;;;5.85;2.00;;;16.10;99.90;;;;;;5071883;28;20120;-72
2022/09/03 07:01:14;;;;;;;5.65;1.92;;;16.30;99.90;;;;;;5054497;28;20044;-72
2022/09/03 07:03:42;;;;;;;6.93;1.85;;;16.30;99.90;;;;;;5072717;28;20461;-71
2022/09/03 07:06:16;;;;;;;4.47;1.60;;;16.40;99.90;;;;;;5041226;28;20076;-72
2022/09/03 07:08:43;;;;;;;7.07;2.00;;;16.50;99.90;;;;;;5039672;28;20048;-72
2022/09/03 07:11:15;;;;;;;5.10;1.60;;;16.60;99.90;;;;;;5073407;28;20044;-72
2022/09/03 07:13:44;;;;;;;6.17;1.70;;;16.70;99.90;;;;;;5071590;28;20040;-72
2022/09/03 07:16:13;;;;;;;6.32;1.70;;;16.70;99.90;;;;;;5053774;28;20545;-72
2022/09/03 07:18:39;;;;;;;5.55;1.65;;;16.80;99.90;;;;;;5035019;28;20094;-73
2022/09/03 07:21:07;;;;;;;6.30;1.85;;;16.90;99.90;;;;;;5067436;28;20568;-71
2022/09/03 07:23:34;;;;;;;5.88;1.80;;;17.10;99.90;;;;;;5067964;28;20473;-71
2022/09/03 07:26:09;;;;;;;5.30;1.58;;;17.10;99.90;;;;;;5049905;28;20048;-72
2022/09/03 07:28:38;;;;;;;4.45;1.63;;;17.20;99.90;;;;;;5050765;28;20048;-72
2022/09/03 07:31:11;;;;;;;4.68;1.70;;;17.30;99.90;;;;;;5053097;28;20040;-73
2022/09/03 07:33:38;;;;;;;5.40;1.63;;;17.40;99.90;;;;;;5068041;28;20067;-73
2022/09/03 07:36:09;;;;;;;7.47;2.00;;;17.40;99.90;;;;;;5031759;28;20518;-72
2022/09/03 07:38:35;;;;;;;8.25;1.70;;;17.50;99.90;;;;;;5049608;28;20039;-73
2022/09/03 07:41:03;;;;;;;5.32;1.70;;;17.50;99.90;;;;;;5049723;28;20490;-73
2022/09/03 07:43:34;;;;;;;5.18;1.70;;;17.70;99.90;;;;;;5031266;28;20043;-74
2022/09/03 07:46:00;;;;;;;5.55;2.10;;;17.80;99.90;;;;;;5070607;28;20502;-70
2022/09/03 07:48:26;;;;;;;4.15;1.67;;;17.90;99.90;;;;;;5070331;28;20056;-71
2022/09/03 07:50:58;;;;;;;5.55;1.80;;;18.00;99.90;;;;;;5071686;28;20041;-73
2022/09/03 07:53:31;;;;;;;5.47;1.70;;;18.10;99.90;;;;;;5069409;28;20045;-72
2022/09/03 07:56:04;;;;;;;;;;;18.20;99.90;;;;;;5039672;28;20048;-70
2022/09/03 07:58:31;;;;;;;4.05;1.40;;;18.30;99.90;;;;;;5099748;28;20397;-72
2022/09/03 08:00:58;;;;;;;6.00;1.70;;;19.80;99.90;;;;;;5034791;28;20158;-72
2022/09/03 08:03:24;;;;;;;4.65;1.60;;;18.50;99.90;;;;;;5017674;28;20080;-72
2022/09/03 08:05:49;;;;;;;9.18;1.70;;;18.50;99.90;;;;;;5068924;28;20074;-70
2022/09/03 08:08:16;;;;;;;4.78;1.60;;;18.60;99.90;;;;;;5070275;28;20040;-71
2022/09/03 08:10:45;;;;;;;7.55;1.67;;;18.70;99.90;;;;;;5053190;28;20044;-72
2022/09/03 08:13:11;;;;;;;5.78;1.80;;;18.70;99.90;;;;;;5067611;28;20040;-72
2022/09/03 08:15:39;;;;;;;5.82;1.70;;;18.80;99.90;;;;;;5048510;28;20040;-72
2022/09/03 08:18:05;;;;;;;6.25;1.60;;;18.90;99.90;;;;;;5030428;28;20055;-72
2022/09/03 08:20:31;;;;;;;7.63;1.60;;;19.00;99.90;;;;;;5050902;28;20025;-71
2022/09/03 08:23:01;;;;;;;6.07;1.63;;;19.00;99.90;;;;;;5050893;28;20094;-72
2022/09/03 08:25:28;;;;;;;5.82;1.80;;;19.10;99.90;;;;;;5051821;28;20113;-73
2022/09/03 08:27:57;;;;;;;4.22;1.50;;;19.20;99.90;;;;;;5051389;28;20550;-72
2022/09/03 08:30:24;;;;;;;3.72;1.55;;;19.30;99.90;;;;;;5063508;28;20503;-72
2022/09/03 08:32:49;;;;;;;5.10;1.55;;;19.30;99.90;;;;;;5029590;28;20044;-72
2022/09/03 08:35:15;;;;;;;3.65;1.60;;;19.40;99.90;;;;;;5045053;28;20041;-72
2022/09/03 08:37:44;;;;;;;6.95;1.63;;;19.60;99.90;;;;;;5046746;28;20120;-72
2022/09/03 08:40:15;;;;;;;5.82;1.75;;;19.70;99.90;;;;;;5067028;28;20128;-73
2022/09/03 08:43:16;;;;;;;6.10;1.70;;;19.70;99.90;;;;;;5032810;28;20525;-72
2022/09/03 08:45:42;;;;;;;4.35;1.58;;;19.80;99.90;;;;;;5083148;28;20074;-71
2022/09/03 08:48:22;;;;;;;5.70;1.52;;;19.90;99.90;;;;;;5064926;28;20048;-72
2022/09/03 08:50:54;;;;;;;6.03;1.77;;;20.00;99.90;;;;;;5051271;28;20040;-73
2022/09/03 08:53:42;;;;;;;4.60;1.55;;;20.10;99.90;;;;;;5051712;28;20060;-73
2022/09/03 08:56:18;;;;;;;3.92;1.60;;;20.10;99.90;;;;;;5062087;28;20133;-72
2022/09/03 08:58:44;;;;;;;6.05;1.70;;;20.20;99.90;;;;;;5048034;28;20064;-75
2022/09/03 09:01:33;;;;;;;5.63;1.50;;;20.20;99.90;;;;;;5065898;28;20182;-73
2022/09/03 09:04:02;;;;;;;5.75;1.60;;;20.30;99.90;;;;;;5051301;28;20147;-74
2022/09/03 09:06:37;;;;;;;8.95;2.05;;;20.40;99.90;;;;;;5032238;28;20052;-71
2022/09/03 09:09:27;;;;;;;5.88;1.52;;;20.40;99.90;;;;;;5047065;28;20056;-73
2022/09/03 09:12:20;;;;;;;4.45;1.73;;;20.40;99.90;;;;;;5035471;28;20124;-72
2022/09/03 09:15:13;;;;;;;5.20;1.52;;;20.50;99.90;;;;;;5049892;28;20040;-73
2022/09/03 09:17:44;;;;;;;;;;;20.50;99.90;;;;;;5064138;28;20438;-72
2022/09/03 09:20:29;;;;;;;3.90;1.50;;;20.60;99.90;;;;;;5050046;28;19983;-71
2022/09/03 09:23:05;;;;;;;4.97;1.42;;;20.60;99.90;;;;;;5049037;28;20513;-72
2022/09/03 09:25:38;;;;;;;4.40;1.55;;;20.50;99.90;;;;;;5047392;28;20817;-71
2022/09/03 09:28:28;;;;;;;4.55;1.73;;;20.80;99.90;;;;;;5047460;28;20055;-73
2022/09/03 09:30:56;;;;;;;5.55;1.70;;;20.80;99.90;;;;;;5042872;28;20045;-71
2022/09/03 09:33:23;;;;;;;5.78;1.60;;;20.90;99.90;;;;;;5063213;28;20773;-72
2022/09/03 09:35:48;;;;;;;6.05;1.63;;;21.00;99.90;;;;;;5066571;28;20058;-73
2022/09/03 09:38:26;;;;;;;7.05;1.58;;;21.20;99.90;;;;;;5050725;28;20040;-73
2022/09/03 09:40:51;;;;;;;4.03;1.50;;;21.20;99.90;;;;;;5050807;28;20063;-75
2022/09/03 09:43:20;;;;;;;4.22;1.70;;;21.30;99.90;;;;;;5031591;28;20040;-72
2022/09/03 09:45:52;;;;;;;4.22;1.52;;;21.30;99.90;;;;;;5068589;28;20115;-73
2022/09/03 09:48:33;;;;;;;4.93;1.60;;;21.40;99.90;;;;;;5031538;28;20172;-71
2022/09/03 09:51:08;;;;;;;5.85;1.65;;;21.50;99.90;;;;;;5048197;28;20144;-73
2022/09/03 09:53:34;;;;;;;5.88;1.50;;;21.50;99.90;;;;;;5047020;28;20112;-74
2022/09/03 09:56:01;;;;;;;4.90;1.45;;;21.60;99.90;;;;;;5064117;28;20121;-73
2022/09/03 09:58:31;;;;;;;5.43;1.60;;;21.60;99.90;;;;;;5050677;28;20422;-73
2022/09/03 10:01:12;;;;;;;4.13;1.60;;;21.70;99.90;;;;;;5031050;28;20048;-74
2022/09/03 10:03:52;;;;;;;7.10;1.63;;;21.80;99.90;;;;;;5048691;28;20090;-74
2022/09/03 10:09:17;;;;;;;5.20;1.48;;;22.10;99.90;;;;;;5018114;28;20048;-73
2022/09/03 10:12:14;;;;;;;5.05;1.40;;;22.20;99.90;;;;;;5048210;28;20044;-72
2022/09/03 10:14:50;;;;;;;3.92;1.35;;;22.20;99.90;;;;;;5031104;28;20090;-73
2022/09/03 10:17:27;;;;;;;6.45;1.58;;;22.30;99.90;;;;;;5045431;28;20353;-72
2022/09/03 10:20:26;;;;;;;6.47;1.65;;;22.40;99.90;;;;;;5029771;28;20044;-73
2022/09/03 10:23:01;;;;;;;2.42;1.20;;;22.50;99.90;;;;;;5031261;28;20040;-74
2022/09/03 10:25:50;;;;;;;4.82;1.42;;;22.50;99.90;;;;;;5046557;28;20055;-74
2022/09/03 10:28:17;;;;;;;5.35;1.50;;;22.60;99.90;;;;;;5037086;28;20037;-74
2022/09/03 10:31:21;;;;;;;5.53;1.55;;;22.70;99.60;;;;;;5047297;28;20029;-73
2022/09/03 10:34:17;;;;;;;5.47;1.45;;;22.80;99.20;;;;;;4945848;28;20043;-72
2022/09/03 10:37:05;;;;;;;5.70;1.50;;;22.80;99.30;;;;;;5062601;28;20043;-74
2022/09/03 10:39:58;;;;;;;6.32;1.73;;;22.90;99.00;;;;;;4344495;28;10000393;-73
2022/09/03 10:42:47;;;;;;;5.00;1.40;;;22.90;98.70;;;;;;5040819;28;20045;-73
2022/09/03 10:45:31;;;;;;;5.82;1.63;;;23.00;98.30;;;;;;5043209;28;20482;-73
2022/09/03 10:48:13;;;;;;;6.55;1.50;;;23.10;98.40;;;;;;5047849;28;20068;-73
2022/09/03 10:50:52;;;;;;;6.10;1.67;;;23.20;98.00;;;;;;5053435;28;20053;-72
2022/09/03 10:53:19;;;;;;;4.22;1.60;;;23.20;97.90;;;;;;5029761;28;20295;-73
2022/09/03 10:55:54;;;;;;;4.43;1.42;;;23.20;97.80;;;;;;5015934;28;20055;-72
2022/09/03 10:58:41;;;;;;;4.07;1.52;;;23.20;97.60;;;;;;5039745;28;20041;-71
2022/09/03 11:01:39;;;;;;;4.00;1.30;;;23.20;97.50;;;;;;5048436;28;20491;-72
2022/09/03 11:04:21;;;;;;;4.10;1.48;;;23.10;96.70;;;;;;5047858;28;20043;-71
2022/09/03 11:06:53;;;;;;;3.55;1.38;;;23.30;96.80;;;;;;5043059;28;20048;-72
2022/09/03 11:09:23;;;;;;;2.50;1.35;;;23.50;97.20;;;;;;5048146;28;20123;-71
2022/09/03 11:11:57;;;;;;;7.05;1.52;;;23.50;97.60;;;;;;5037120;28;20408;-71
2022/09/03 11:14:43;;;;;;;5.50;1.40;;;23.50;96.90;;;;;;5025497;28;20049;-72
2022/09/03 11:17:25;;;;;;;4.22;1.42;;;23.70;96.60;;;;;;5044174;28;20403;-70
2022/09/03 11:20:06;;;;;;;7.03;1.63;;;23.70;96.20;;;;;;5051067;28;20045;-72
2022/09/03 11:22:33;;;;;;;3.60;1.30;;;23.70;96.20;;;;;;5052822;28;20064;-72
2022/09/03 11:25:02;;;;;;;3.70;1.50;;;23.80;95.60;;;;;;5017534;28;20090;-71
2022/09/03 11:27:59;;;;;;;4.70;1.40;;;23.90;95.90;;;;;;5027213;28;20395;-72
2022/09/03 11:30:56;;;;;;;4.72;1.48;;;23.90;95.50;;;;;;5012674;28;20052;-72
2022/09/03 11:33:25;;;;;;;4.53;1.45;;;23.90;95.10;;;;;;5048268;28;20068;-72
2022/09/03 11:35:59;;;;;;;4.68;1.38;;;23.90;95.60;;;;;;5032207;28;20310;-72
2022/09/03 11:38:30;;;;;;;5.15;1.50;;;23.90;94.80;;;;;;5049558;28;20032;-72
2022/09/03 11:41:13;;;;;;;6.18;1.33;;;24.00;94.70;;;;;;5051296;28;20041;-73
2022/09/03 11:43:43;;;;;;;5.50;1.63;;;23.90;93.90;;;;;;5032538;28;20051;-73
2022/09/03 11:46:20;;;;;;;4.93;1.35;;;24.00;94.00;;;;;;5051558;28;20140;-72
2022/09/03 11:48:55;;;;;;;2.15;1.20;;;24.00;93.60;;;;;;5031900;28;20057;-75
2022/09/03 11:51:32;;;;;;;7.82;1.70;;;24.00;93.90;;;;;;5032757;28;20051;-72
2022/09/03 11:54:03;;;;;;;5.05;1.40;;;24.10;94.10;;;;;;5053672;28;20630;-72
2022/09/03 11:56:31;;;;;;;4.95;1.30;;;24.10;93.90;;;;;;5051446;28;20072;-72
2022/09/03 11:59:16;;;;;;;5.00;1.50;;;24.20;93.70;;;;;;5041603;28;20363;-71
2022/09/03 12:01:45;;;;;;;5.35;1.40;;;24.30;93.50;;;;;;5031384;28;20388;-72
2022/09/03 12:04:14;;;;;;;3.65;1.30;;;24.30;93.30;;;;;;5033692;28;20398;-72
2022/09/03 12:06:52;;;;;;;3.45;1.25;;;24.30;93.20;;;;;;5026602;28;20495;-72
2022/09/03 12:09:45;;;;;;;3.95;1.40;;;24.30;92.70;;;;;;5032056;28;20539;-72
2022/09/03 12:12:56;;;;;;;5.25;1.70;;;24.30;92.30;;;;;;5022723;28;20060;-74
2022/09/03 12:15:46;;;;;;;6.75;2.00;;;24.30;92.70;;;;;;5027378;28;20041;-72
2022/09/03 12:18:24;;;;;;;4.53;1.40;;;24.40;92.80;;;;;;5032718;28;20048;-72
2022/09/03 12:20:59;;;;;;;4.68;1.73;;;24.40;92.10;;;;;;5031577;28;20048;-76
2022/09/03 12:23:48;;;;;;;4.45;1.67;;;24.90;92.50;;;;;;5050737;28;20041;-72
2022/09/03 12:26:27;;;;;;;3.65;1.48;;;24.50;92.60;;;;;;5031718;28;20179;-73
2022/09/03 12:28:57;;;;;;;3.63;1.50;;;24.60;92.40;;;;;;5022682;28;20158;-74
2022/09/03 12:31:28;;;;;;;7.32;1.48;;;24.60;92.00;;;;;;4997362;28;20487;-73
2022/09/03 12:33:57;;;;;;;4.13;1.40;;;24.70;92.00;;;;;;5049551;28;20491;-73
2022/09/03 12:36:25;;;;;;;5.53;1.50;;;24.60;91.90;;;;;;5048052;28;20044;-74
2022/09/03 12:39:06;;;;;;;5.32;1.60;;;24.70;92.10;;;;;;5051873;28;20048;-74
2022/09/03 12:41:32;;;;;;;4.63;1.25;;;24.70;91.70;;;;;;5044559;28;20037;-72
2022/09/03 12:43:59;;;;;;;4.93;1.50;;;24.60;91.80;;;;;;5024596;28;20127;-73
2022/09/03 12:46:28;;;;;;;4.95;1.50;;;24.80;92.00;;;;;;5029386;28;20086;-71
2022/09/03 12:49:03;;;;;;;4.70;1.33;;;24.90;91.80;;;;;;5045366;28;20048;-71
2022/09/03 12:51:39;;;;;;;7.95;1.40;;;24.80;91.40;;;;;;5044098;28;20408;-71
2022/09/03 12:54:08;;;;;;;9.82;1.48;;;24.80;90.70;;;;;;5045256;28;20041;-74
2022/09/03 12:56:37;;;;;;;5.22;1.38;;;24.80;91.30;;;;;;5049206;28;20037;-72
2022/09/03 12:59:11;;;;;;;4.40;1.50;;;24.70;91.20;;;;;;4327959;28;10000073;-73
2022/09/03 13:01:49;;;;;;;5.70;1.60;;;24.80;91.40;;;;;;5025459;28;20217;-73
2022/09/03 13:04:26;;;;;;;4.13;1.30;;;24.90;91.00;;;;;;5044449;28;20559;-72
2022/09/03 13:06:59;;;;;;;7.00;1.20;;;24.90;90.50;;;;;;5036307;28;20324;-73
2022/09/03 13:09:28;;;;;;;4.47;1.33;;;25.00;90.90;;;;;;5046183;28;20361;-73
2022/09/03 13:11:57;;;;;;;4.90;1.30;;;25.00;90.90;;;;;;5048065;28;20380;-72
2022/09/03 13:14:25;;;;;;;3.90;1.35;;;24.90;90.50;;;;;;5009372;28;20041;-72
2022/09/03 13:17:09;;;;;;;3.47;1.40;;;25.00;90.70;;;;;;5048633;28;20052;-72
2022/09/03 13:20:20;;;;;;;1.75;1.17;;;25.00;90.60;;;;;;5042492;28;20750;-72
2022/09/03 13:22:46;;;;;;;4.50;1.30;;;25.20;90.50;;;;;;5042908;28;20077;-72
2022/09/03 13:25:35;;;;;;;4.22;1.40;;;26.10;90.70;;;;;;5043996;28;20091;-73